Flight Track Log - Related Links

Times and Time Zones

All times are in EDT time to prevent confusion due to time zone crossing. See the N4978T flight status page for this flight to view local times or setup timezone preferences in your user account.

Time Position Orientation Groundspeed Altitude Reporting Facility
EDT Latitude Longitude Course Direction KTS MPH feet Rate Location/Type
Tue 07:59:43 PM 33.9833 -117.6833 270° West 89 102 2,000  Level Southern California TRACON
Tue 08:00:43 PM 33.9833 -117.7167 270° West 95 109 2,500 550 Climbing Southern California TRACON
Tue 08:01:43 PM 34.0000 -117.7333 320° Northwest 88 101 3,100 550 Climbing Southern California TRACON
Tue 08:02:43 PM 34.0000 -117.7667 270° West 81 93 3,600 450 Climbing Southern California TRACON
Tue 08:03:43 PM 34.0167 -117.7833 320° Northwest 87 100 4,000 446 Climbing Southern California TRACON
Tue 08:04:44 PM 34.0167 -117.8167 270° West 120 138 4,500 446 Climbing Southern California TRACON
Tue 08:05:44 PM 34.0333 -117.8500 301° West 77 89 4,900 400 Climbing Southern California TRACON
Tue 08:06:44 PM 34.0333 -117.8667 270° West 79 91 5,300 450 Climbing Southern California TRACON
Tue 08:07:44 PM 34.0333 -117.8833 270° West 81 93 5,800 450 Climbing Southern California TRACON
Tue 08:08:44 PM 34.0500 -117.9167 301° West 85 98 6,200 150 Climbing Southern California TRACON
Tue 08:09:44 PM 34.0667 -117.9500 301° West 117 135 6,100 -50 Descending Southern California TRACON
Tue 08:10:44 PM 34.0667 -117.9833 270° West 126 145 6,100  Level Southern California TRACON
Tue 08:11:44 PM 34.0833 -118.0333 292° West 127 146 6,100  Level Southern California TRACON
Tue 08:12:44 PM 34.1000 -118.0667 301° West 130 150 6,100  Level Southern California TRACON
Tue 08:13:44 PM 34.1167 -118.1167 292° West 132 152 6,100  Level Southern California TRACON
Tue 08:14:45 PM 34.1167 -118.1500 270° West 130 150 6,100  Level Southern California TRACON
Tue 08:15:45 PM 34.1333 -118.2000 292° West 130 150 6,100 -350 Level Southern California TRACON
Tue 08:16:45 PM 34.1500 -118.2333 301° West 148 170 5,400 -700 Descending Southern California TRACON
Tue 08:17:45 PM 34.1500 -118.2833 270° West 138 159 4,700 -900 Descending Southern California TRACON
Tue 08:18:45 PM 34.1167 -118.3167 220° Southwest 152 175 3,600 -1,000 Descending Southern California TRACON
Tue 08:19:45 PM 34.1000 -118.3500 239° Southwest 121 139 2,700 -700 Descending Southern California TRACON
Tue 08:20:45 PM 34.0833 -118.3833 239° Southwest 90 104 2,200 -600 Descending Southern California TRACON
Tue 08:21:45 PM 34.0667 -118.4000 220° Southwest 79 91 1,500 -550 Descending Southern California TRACON
Tue 08:22:45 PM 34.0500 -118.4167 220° Southwest 65 75 1,100 -250 Descending Southern California TRACON
Tue 08:23:45 PM 34.0333 -118.4333 220° Southwest 70 81 1,000 -300 Descending Southern California TRACON
Tue 08:24:45 PM 34.0167 -118.4500 220° Southwest 64 74 500 -500 Descending Southern California TRACON
Tue 08:27:00 PM 34.0158 -118.4513 229° Southwest  Level Estimated
Tue 08:34:00 PM 34.0158 -118.4513 229° Southwest  Level Estimated

Login

Don't have an account? Register now (free) for customized features, flight alerts, and more!